Time;durP1;ratioP1;P1;durP2;ratioP2;P2;SDS_P1;SDS_P2;PMS_P1;PMS_P2;Temp;Humidity;BMP_temperature;BMP_pressure;BME280_temperature;BME280_humidity;BME280_pressure;Samples;Min_cycle;Max_cycle;Signal;HPM_P1;HPM_P2
2022/11/24 00:02:29;;;;;;;7.63;2.03;;;;;;;5.28;97.28;99929.34;6048361;28;20030;-69
2022/11/24 00:05:25;;;;;;;3.70;1.65;;;;;;;5.31;97.98;99939.59;6048428;28;20037;-69
2022/11/24 00:08:21;;;;;;;4.30;1.80;;;;;;;5.21;98.06;99935.28;6048679;28;20030;-69
2022/11/24 00:11:19;;;;;;;5.70;2.17;;;;;;;5.25;99.00;99953.25;6047667;28;20064;-69
2022/11/24 00:14:15;;;;;;;7.20;2.03;;;;;;;5.17;99.00;99932.06;6048235;28;20310;-70
2022/11/24 00:17:10;;;;;;;4.45;2.08;;;;;;;5.21;99.54;99948.41;6048647;28;20025;-70
2022/11/24 00:20:06;;;;;;;9.13;2.50;;;;;;;5.13;100.00;99932.47;6047825;28;20034;-70
2022/11/24 00:23:01;;;;;;;5.68;2.35;;;;;;;5.23;100.00;99954.34;6048156;28;20053;-70
2022/11/24 00:26:26;;;;;;;6.73;2.50;;;;;;;5.31;100.00;99954.53;6048163;28;20057;-69
2022/11/24 00:29:22;;;;;;;5.43;1.90;;;;;;;5.24;100.00;99950.78;6046628;28;20297;-69
2022/11/24 00:32:17;;;;;;;9.57;2.00;;;;;;;5.20;100.00;99952.81;6047406;28;20033;-69
2022/11/24 00:35:12;;;;;;;6.90;2.27;;;;;;;5.18;100.00;99943.41;6048176;28;20489;-69
2022/11/24 00:38:08;;;;;;;4.43;1.80;;;;;;;5.22;100.00;99960.56;6047976;28;20037;-69
2022/11/24 00:41:03;;;;;;;4.63;2.07;;;;;;;5.14;100.00;99934.09;6046854;28;20616;-69
2022/11/24 00:43:59;;;;;;;7.78;2.28;;;;;;;5.28;100.00;99954.78;6047676;28;20093;-69
2022/11/24 00:46:54;;;;;;;4.30;2.35;;;;;;;5.21;100.00;99941.34;6047116;28;20042;-70
2022/11/24 00:49:50;;;;;;;4.97;1.97;;;;;;;5.23;100.00;99964.88;6047912;28;20109;-70
2022/11/24 00:52:45;;;;;;;7.03;2.40;;;;;;;5.22;100.00;99968.44;6046897;28;20500;-69
2022/11/24 00:55:41;;;;;;;4.50;1.88;;;;;;;5.23;100.00;99970.13;6047454;28;20029;-69
2022/11/24 00:58:36;;;;;;;6.63;2.30;;;;;;;5.20;100.00;99970.38;6047564;28;20029;-69
2022/11/24 01:01:31;;;;;;;5.70;2.25;;;;;;;5.13;100.00;99977.97;6045929;28;20037;-69
2022/11/24 01:04:27;;;;;;;7.97;3.00;;;;;;;5.07;100.00;99972.38;6047222;28;20034;-69
2022/11/24 01:07:22;;;;;;;6.07;2.30;;;;;;;5.11;100.00;99990.38;6047659;28;20026;-69
2022/11/24 01:10:18;;;;;;;8.50;2.30;;;;;;;5.02;100.00;99979.81;6047253;28;20068;-68
2022/11/24 01:13:13;;;;;;;7.17;2.70;;;;;;;5.02;100.00;99991.19;6049663;28;20492;-68
2022/11/24 01:16:17;;;;;;;5.43;2.10;;;;;;;5.03;100.00;99986.75;6047088;28;20038;-68
2022/11/24 01:19:13;;;;;;;8.07;2.13;;;;;;;5.02;100.00;99985.91;6047382;28;20603;-69
2022/11/24 01:22:08;;;;;;;10.90;2.78;;;;;;;5.04;100.00;99984.00;6045933;28;20030;-69
2022/11/24 01:25:09;;;;;;;4.72;1.98;;;;;;;5.12;100.00;99996.47;6047376;28;20066;-69
2022/11/24 01:28:04;;;;;;;6.55;2.40;;;;;;;5.05;100.00;99990.09;6047179;28;20037;-68
2022/11/24 01:31:01;;;;;;;4.87;2.40;;;;;;;5.07;100.00;99996.88;6046560;28;20029;-68
2022/11/24 01:33:57;;;;;;;4.95;2.47;;;;;;;5.06;100.00;100002.25;6047064;28;20030;-68
2022/11/24 01:36:52;;;;;;;6.20;2.58;;;;;;;5.01;100.00;99994.75;6046246;28;20111;-68
2022/11/24 01:39:47;;;;;;;7.00;2.60;;;;;;;4.93;100.00;99996.34;6046346;28;20049;-69
2022/11/24 01:42:49;;;;;;;8.17;2.83;;;;;;;4.92;100.00;99997.34;6045838;28;20062;-69
2022/11/24 01:45:45;;;;;;;6.40;2.65;;;;;;;4.87;100.00;99996.84;6046304;28;20121;-69
2022/11/24 01:48:43;;;;;;;8.98;2.95;;;;;;;4.79;100.00;99990.47;6046564;28;20021;-69
2022/11/24 01:51:42;;;;;;;6.00;2.30;;;;;;;4.76;100.00;99995.97;6045401;28;20041;-69
2022/11/24 01:54:43;;;;;;;8.73;3.80;;;;;;;4.76;100.00;99995.97;6044132;28;20041;-69
2022/11/24 01:57:42;;;;;;;;;;;;;;;4.84;100.00;100005.00;6046201;28;20112;-69
2022/11/24 02:00:40;;;;;;;5.35;2.53;;;;;;;4.77;100.00;100002.88;6045971;28;20257;-69
2022/11/24 02:03:37;;;;;;;8.02;3.33;;;;;;;4.91;100.00;100016.66;6044804;28;20084;-69
2022/11/24 02:06:34;;;;;;;8.57;2.80;;;;;;;4.91;100.00;100029.81;6045257;28;20536;-68
2022/11/24 02:09:48;;;;;;;7.40;2.75;;;;;;;4.95;100.00;100023.31;6044827;28;20506;-68
2022/11/24 02:12:47;;;;;;;11.05;3.13;;;;;;;4.99;100.00;100027.38;6041859;28;20038;-69
2022/11/24 02:15:42;;;;;;;10.70;4.20;;;;;;;4.99;100.00;100011.59;6045234;28;20044;-68
2022/11/24 02:18:38;;;;;;;10.80;3.40;;;;;;;5.08;100.00;100031.88;6046067;28;20033;-69
2022/11/24 02:21:34;;;;;;;6.47;2.85;;;;;;;5.06;100.00;100018.00;6045617;28;20030;-69
2022/11/24 02:24:31;;;;;;;8.50;2.70;;;;;;;5.16;100.00;100026.81;6045735;28;20378;-69
2022/11/24 02:27:27;;;;;;;8.40;3.38;;;;;;;5.11;100.00;100021.09;6044559;28;20080;-69
2022/11/24 02:30:23;;;;;;;8.95;3.38;;;;;;;5.11;100.00;100023.72;6045471;28;20082;-69
2022/11/24 02:33:19;;;;;;;9.38;3.10;;;;;;;5.12;100.00;100031.47;6043940;28;20145;-69
2022/11/24 02:36:15;;;;;;;7.70;3.22;;;;;;;5.13;100.00;100046.28;6044758;28;20537;-69
2022/11/24 02:39:11;;;;;;;7.53;3.25;;;;;;;5.09;100.00;100038.78;6045671;28;20030;-69
2022/11/24 02:42:12;;;;;;;9.10;3.92;;;;;;;5.10;100.00;100046.53;6045492;28;20032;-68
2022/11/24 02:45:08;;;;;;;8.57;2.95;;;;;;;5.09;100.00;100038.78;6044512;28;20532;-69
2022/11/24 02:48:04;;;;;;;10.77;2.70;;;;;;;5.02;100.00;100027.13;6044959;28;20026;-69
2022/11/24 02:50:59;;;;;;;9.68;2.65;;;;;;;5.06;100.00;100041.66;6044615;28;20045;-68
2022/11/24 02:53:55;;;;;;;10.60;3.57;;;;;;;5.08;100.00;100047.63;6045493;28;20092;-69
2022/11/24 02:56:50;;;;;;;8.53;3.03;;;;;;;5.10;100.00;100037.81;6045539;28;20397;-68
2022/11/24 02:59:45;;;;;;;9.27;3.00;;;;;;;5.17;100.00;100041.59;6045629;28;20107;-68
2022/11/24 03:02:41;;;;;;;12.87;3.40;;;;;;;5.20;100.00;100041.34;6044751;28;20037;-68
2022/11/24 03:05:36;;;;;;;9.67;2.87;;;;;;;5.27;100.00;100045.94;6047677;28;20351;-68
2022/11/24 03:08:31;;;;;;;7.53;3.33;;;;;;;5.28;100.00;100039.75;6049729;28;20371;-68
2022/11/24 03:11:27;;;;;;;8.37;3.17;;;;;;;5.30;100.00;100042.22;6049339;28;20779;-69
2022/11/24 03:14:23;;;;;;;5.83;2.63;;;;;;;5.30;100.00;100040.44;6049866;28;20041;-68
2022/11/24 03:17:18;;;;;;;11.95;2.75;;;;;;;5.40;100.00;100061.53;6049644;28;20041;-69
2022/11/24 03:20:14;;;;;;;5.57;2.17;;;;;;;5.34;100.00;100046.28;6048918;28;20033;-68
2022/11/24 03:23:09;;;;;;;4.53;2.53;;;;;;;5.36;100.00;100039.09;6049178;28;20080;-68
2022/11/24 03:26:09;;;;;;;9.33;2.53;;;;;;;5.40;100.00;100051.03;6049929;28;20060;-68
2022/11/24 03:29:04;;;;;;;10.50;2.55;;;;;;;5.37;100.00;100059.16;6049686;28;20030;-69
2022/11/24 03:32:00;;;;;;;5.90;2.27;;;;;;;5.46;100.00;100058.41;6049340;28;20084;-69
2022/11/24 03:34:55;;;;;;;10.82;2.67;;;;;;;5.49;100.00;100073.88;6051650;28;20029;-69
2022/11/24 03:37:51;;;;;;;9.00;2.80;;;;;;;5.52;100.00;100068.38;6048789;28;20176;-68
2022/11/24 03:40:46;;;;;;;6.70;2.27;;;;;;;5.51;100.00;100064.09;6048603;28;20408;-68
2022/11/24 03:43:41;;;;;;;11.03;2.47;;;;;;;5.51;100.00;100081.66;6048920;28;20073;-68
2022/11/24 03:46:36;;;;;;;7.00;1.93;;;;;;;5.55;100.00;100083.06;6049090;28;20033;-68
2022/11/24 03:49:32;;;;;;;8.27;3.00;;;;;;;5.49;100.00;100076.53;6049132;28;20033;-68
2022/11/24 03:52:27;;;;;;;9.73;2.40;;;;;;;5.59;100.00;100087.94;6048378;28;20076;-68
2022/11/24 03:55:24;;;;;;;8.73;2.30;;;;;;;5.61;100.00;100083.38;6048990;28;20122;-69
2022/11/24 03:58:19;;;;;;;6.25;2.40;;;;;;;5.64;100.00;100080.50;6048470;28;20053;-68
2022/11/24 04:01:15;;;;;;;6.90;2.40;;;;;;;5.71;100.00;100089.53;6048320;28;20477;-68
2022/11/24 04:04:11;;;;;;;9.53;1.97;;;;;;;5.60;100.00;100076.44;6048496;28;20440;-68
2022/11/24 04:07:06;;;;;;;4.20;1.88;;;;;;;5.47;100.00;100075.81;6041040;28;20116;-69
2022/11/24 04:10:02;;;;;;;11.40;2.90;;;;;;;5.46;100.00;100089.94;6048648;28;20034;-69
2022/11/24 04:12:57;;;;;;;4.47;1.90;;;;;;;5.39;100.00;100091.41;6047911;28;20026;-68
2022/11/24 04:15:52;;;;;;;8.30;2.57;;;;;;;5.43;100.00;100100.72;6048618;28;20032;-68
2022/11/24 04:18:51;;;;;;;11.93;3.10;;;;;;;5.53;100.00;100101.59;6047748;28;20040;-68
2022/11/24 04:21:46;;;;;;;10.38;2.60;;;;;;;5.58;100.00;100109.94;6047352;28;20165;-68
2022/11/24 04:24:41;;;;;;;5.03;2.30;;;;;;;5.69;100.00;100111.66;6048307;28;20026;-68
2022/11/24 04:27:37;;;;;;;5.83;2.53;;;;;;;5.68;100.00;100094.22;6047997;28;20050;-68
2022/11/24 04:30:32;;;;;;;5.80;2.10;;;;;;;5.84;100.00;100116.44;6047108;28;20108;-68
2022/11/24 04:33:28;;;;;;;11.27;2.57;;;;;;;5.86;100.00;100109.31;6047566;28;20037;-68
2022/11/24 04:36:23;;;;;;;5.38;2.10;;;;;;;5.96;100.00;100119.88;6047409;28;20521;-68
2022/11/24 04:39:18;;;;;;;8.40;2.30;;;;;;;6.06;100.00;100123.38;6048114;28;20026;-69
2022/11/24 04:42:13;;;;;;;10.23;2.00;;;;;;;6.10;100.00;100137.09;6041300;28;20280;-68
2022/11/24 04:45:10;;;;;;;8.17;2.00;;;;;;;6.06;100.00;100125.19;6048060;28;20053;-69
2022/11/24 04:48:05;;;;;;;9.30;3.22;;;;;;;6.02;100.00;100121.13;6047627;28;20172;-68
2022/11/24 04:51:04;;;;;;;7.13;2.23;;;;;;;6.03;100.00;100131.56;6046666;28;20026;-68
2022/11/24 04:53:59;;;;;;;9.02;2.45;;;;;;;6.08;100.00;100144.31;6047754;28;20037;-68
2022/11/24 04:56:54;;;;;;;12.00;2.87;;;;;;;6.03;100.00;100141.25;6044432;28;20499;-68
2022/11/24 04:59:51;;;;;;;10.33;3.03;;;;;;;5.94;100.00;100133.16;6040341;28;20525;-68
2022/11/24 05:02:46;;;;;;;8.20;2.38;;;;;;;6.06;100.00;100162.84;6047210;28;20067;-69
2022/11/24 05:05:42;;;;;;;8.68;2.85;;;;;;;6.02;100.00;100155.34;6047079;28;20042;-68
2022/11/24 05:08:37;;;;;;;7.13;2.80;;;;;;;5.91;100.00;100154.47;6046036;28;20628;-68
2022/11/24 05:11:32;;;;;;;16.93;3.03;;;;;;;5.86;100.00;100151.41;6046547;28;20042;-69
2022/11/24 05:14:28;;;;;;;9.07;3.35;;;;;;;5.95;100.00;100166.38;6047033;28;20032;-68
2022/11/24 05:17:23;;;;;;;6.90;2.70;;;;;;;5.96;100.00;100169.84;6046759;28;20049;-68
2022/11/24 05:20:19;;;;;;;9.00;2.63;;;;;;;5.92;100.00;100174.53;6046242;28;20272;-69
2022/11/24 05:23:14;;;;;;;6.90;2.80;;;;;;;5.97;100.00;100180.28;6046809;28;20033;-69
2022/11/24 05:26:10;;;;;;;8.20;2.50;;;;;;;5.95;100.00;100186.63;6046523;28;20026;-69
2022/11/24 05:29:05;;;;;;;5.60;2.40;;;;;;;6.01;100.00;100180.03;6046303;28;20377;-69
2022/11/24 05:32:01;;;;;;;8.70;2.95;;;;;;;5.98;100.00;100184.56;6046689;28;20025;-69
2022/11/24 05:34:57;;;;;;;9.77;2.47;;;;;;;5.90;100.00;100167.75;6045823;28;20032;-68
2022/11/24 05:37:52;;;;;;;9.23;2.95;;;;;;;5.94;100.00;100180.53;6046306;28;20057;-69
2022/11/24 05:40:47;;;;;;;9.03;2.67;;;;;;;6.03;100.00;100192.09;6045531;28;20026;-69
2022/11/24 05:43:43;;;;;;;9.27;2.50;;;;;;;6.02;100.00;100186.94;6046471;28;20048;-68
2022/11/24 05:46:38;;;;;;;9.52;3.20;;;;;;;6.07;100.00;100197.91;6046207;28;20034;-68
2022/11/24 05:49:33;;;;;;;11.63;3.00;;;;;;;5.99;100.00;100194.13;6040086;28;20042;-68
2022/11/24 05:52:29;;;;;;;7.80;2.87;;;;;;;5.96;100.00;100212.81;6042747;28;20034;-68
2022/11/24 05:55:24;;;;;;;11.03;3.40;;;;;;;5.89;100.00;100214.28;6046497;28;20077;-68
2022/11/24 05:58:19;;;;;;;8.77;3.40;;;;;;;5.78;100.00;100211.69;6046010;28;20568;-68
2022/11/24 06:01:15;;;;;;;9.30;3.20;;;;;;;5.69;100.00;100217.72;6045144;28;20639;-68
2022/11/24 06:04:10;;;;;;;16.10;3.50;;;;;;;5.59;100.00;100205.44;6046968;28;20033;-67
2022/11/24 06:07:07;;;;;;;10.00;3.37;;;;;;;5.60;100.00;100217.66;6046094;28;20291;-68
2022/11/24 06:10:03;;;;;;;12.30;3.65;;;;;;;5.68;100.00;100226.53;6045400;28;20529;-68
2022/11/24 06:12:58;;;;;;;10.90;3.75;;;;;;;5.70;100.00;100222.00;6045799;28;20041;-67
2022/11/24 06:15:55;;;;;;;12.00;3.00;;;;;;;5.76;100.00;100237.25;6046008;28;20046;-69
2022/11/24 06:18:50;;;;;;;12.23;3.47;;;;;;;5.75;100.00;100217.19;6045799;28;20072;-68
2022/11/24 06:21:45;;;;;;;10.50;3.47;;;;;;;5.75;100.00;100230.34;6045134;28;20030;-68
2022/11/24 06:24:41;;;;;;;6.67;2.87;;;;;;;5.74;100.00;100220.78;6045523;28;20323;-68
2022/11/24 06:27:36;;;;;;;9.10;3.50;;;;;;;5.79;100.00;100234.38;6046076;28;20458;-68
2022/11/24 06:30:31;;;;;;;8.00;2.53;;;;;;;5.66;100.00;100206.59;6044728;28;20025;-68
2022/11/24 06:33:31;;;;;;;10.02;3.13;;;;;;;5.76;100.00;100229.38;6045853;28;21028;-68
2022/11/24 06:36:26;;;;;;;10.55;3.20;;;;;;;5.77;100.00;100241.56;6045613;28;20049;-68
2022/11/24 06:39:21;;;;;;;10.23;3.10;;;;;;;5.67;100.00;100235.41;6045632;28;20490;-68
2022/11/24 06:42:17;;;;;;;10.77;2.83;;;;;;;5.62;100.00;100232.34;6049939;28;20037;-68
2022/11/24 06:45:13;;;;;;;17.20;3.90;;;;;;;5.68;100.00;100244.16;6039449;28;20026;-68
2022/11/24 06:48:08;;;;;;;9.20;2.87;;;;;;;5.61;100.00;100232.44;6041874;28;20030;-68
2022/11/24 06:51:08;;;;;;;10.30;3.40;;;;;;;5.65;100.00;100242.59;6049536;28;20257;-68
2022/11/24 06:54:07;;;;;;;16.23;3.13;;;;;;;5.64;100.00;100246.19;6047848;28;20497;-68
2022/11/24 06:57:02;;;;;;;11.52;3.85;;;;;;;5.66;100.00;100253.94;6044676;28;20028;-68
2022/11/24 06:59:57;;;;;;;11.47;3.60;;;;;;;5.60;100.00;100238.69;6049641;28;20030;-68
2022/11/24 07:02:53;;;;;;;12.40;3.17;;;;;;;5.71;100.00;100257.03;6044218;28;20035;-68
2022/11/24 07:05:48;;;;;;;12.23;3.27;;;;;;;5.70;100.00;100260.63;6048580;28;20281;-68
2022/11/24 07:08:44;;;;;;;8.97;3.40;;;;;;;5.63;100.00;100256.81;6049979;28;20273;-67
2022/11/24 07:11:40;;;;;;;6.55;2.92;;;;;;;5.59;100.00;100261.50;6049221;28;20283;-68
2022/11/24 07:14:35;;;;;;;12.38;3.20;;;;;;;5.60;100.00;100271.06;6049627;28;20049;-68
2022/11/24 07:17:30;;;;;;;12.25;3.42;;;;;;;5.64;100.00;100274.28;6049719;28;20022;-67
2022/11/24 07:20:26;;;;;;;11.43;3.57;;;;;;;5.58;100.00;100272.97;6047870;28;20058;-67
2022/11/24 07:23:21;;;;;;;13.23;3.20;;;;;;;5.47;100.00;100274.81;6049515;28;20346;-67
2022/11/24 07:26:17;;;;;;;11.50;3.63;;;;;;;5.48;100.00;100282.59;6049880;28;20269;-67
2022/11/24 07:29:12;;;;;;;8.50;3.10;;;;;;;5.45;100.00;100280.19;6049056;28;20121;-67
2022/11/24 07:32:07;;;;;;;12.40;3.75;;;;;;;5.30;100.00;100274.38;6039046;28;20112;-68
2022/11/24 07:35:03;;;;;;;12.07;3.03;;;;;;;5.41;100.00;100291.91;6048645;28;20037;-69
2022/11/24 07:37:58;;;;;;;13.55;3.33;;;;;;;5.43;100.00;100290.00;6049230;28;20065;-69
2022/11/24 07:40:58;;;;;;;11.83;3.37;;;;;;;5.33;100.00;100282.03;6048546;28;20088;-69
2022/11/24 07:43:54;;;;;;;9.07;3.00;;;;;;;5.39;100.00;100299.09;6049136;28;20080;-69
2022/11/24 07:46:50;;;;;;;12.85;3.25;;;;;;;5.41;100.00;100299.78;6048833;28;20042;-68
2022/11/24 07:49:45;;;;;;;7.28;3.20;;;;;;;5.34;100.00;100302.09;6047672;28;20060;-69
2022/11/24 07:52:40;;;;;;;11.23;3.30;;;;;;;5.32;100.00;100295.31;6048425;28;20367;-70
2022/11/24 07:55:36;;;;;;;11.30;4.40;;;;;;;5.31;100.00;100306.75;6048300;28;20458;-69
2022/11/24 07:58:33;;;;;;;10.45;3.95;;;;;;;5.32;100.00;100297.94;6048760;28;20076;-69
2022/11/24 08:01:28;;;;;;;12.35;3.00;;;;;;;5.42;100.00;100314.63;6048271;28;20478;-69
2022/11/24 08:04:24;;;;;;;13.80;4.00;;;;;;;5.51;100.00;100316.53;6048435;28;20041;-69
2022/11/24 08:07:19;;;;;;;8.23;2.77;;;;;;;5.53;100.00;100322.50;6048415;28;20065;-69
2022/11/24 08:10:15;;;;;;;7.25;2.70;;;;;;;5.55;100.00;100311.84;6047534;28;20112;-69
2022/11/24 08:13:10;;;;;;;8.40;2.83;;;;;;;5.64;100.00;100311.09;6047743;28;20181;-69
2022/11/24 08:16:10;;;;;;;14.73;3.00;;;;;;;5.75;100.00;100332.94;6048326;28;20038;-69
2022/11/24 08:19:05;;;;;;;11.52;2.92;;;;;;;5.80;100.00;100325.50;6048169;28;20612;-69
2022/11/24 08:22:01;;;;;;;9.47;2.20;;;;;;;5.93;100.00;100325.38;6047501;28;20034;-69
2022/11/24 08:24:56;;;;;;;11.73;3.60;;;;;;;6.08;100.00;100344.34;6047854;28;20030;-68
2022/11/24 08:27:51;;;;;;;10.13;2.90;;;;;;;6.19;100.00;100342.50;6047820;28;20036;-67
2022/11/24 08:30:47;;;;;;;9.73;2.92;;;;;;;6.13;100.00;100342.16;6047545;28;20116;-68
2022/11/24 08:33:42;;;;;;;12.43;3.50;;;;;;;6.18;100.00;100342.59;6047116;28;20036;-67
2022/11/24 08:36:38;;;;;;;15.55;2.90;;;;;;;6.25;100.00;100351.69;6045900;28;20453;-67
2022/11/24 08:39:33;;;;;;;12.95;2.75;;;;;;;6.27;100.00;100360.28;6040611;28;20124;-69
2022/11/24 08:42:29;;;;;;;10.47;2.70;;;;;;;6.27;100.00;100353.22;6044881;28;20385;-68
2022/11/24 08:45:25;;;;;;;7.93;2.83;;;;;;;6.37;100.00;100367.28;6047922;28;20737;-68
2022/11/24 08:48:20;;;;;;;10.80;3.10;;;;;;;6.41;100.00;100355.50;6047463;28;20288;-67
2022/11/24 08:51:19;;;;;;;13.70;2.30;;;;;;;6.63;100.00;100380.91;6046391;28;20072;-68
2022/11/24 08:54:17;;;;;;;11.25;2.53;;;;;;;6.65;100.00;100364.97;6046899;28;20104;-68
2022/11/24 08:57:13;;;;;;;12.90;2.58;;;;;;;6.83;100.00;100369.50;6047068;28;20381;-68
2022/11/24 09:00:09;;;;;;;10.35;2.70;;;;;;;6.95;100.00;100384.28;6046087;28;20128;-68
2022/11/24 09:03:04;;;;;;;8.73;2.38;;;;;;;7.10;100.00;100382.97;6045946;28;20354;-68
2022/11/24 09:06:01;;;;;;;5.80;2.13;;;;;;;7.40;100.00;100378.63;6046745;28;20029;-68
2022/11/24 09:08:57;;;;;;;9.75;2.67;;;;;;;7.62;98.98;100381.06;6046530;28;20152;-69
2022/11/24 09:11:53;;;;;;;11.50;2.35;;;;;;;7.78;97.80;100376.91;6046491;28;20096;-68
2022/11/24 09:14:48;;;;;;;7.30;2.30;;;;;;;8.13;96.59;100394.88;6047020;28;20034;-68
2022/11/24 09:17:43;;;;;;;8.60;2.13;;;;;;;8.25;95.52;100400.88;6046492;28;20360;-69
2022/11/24 09:20:39;;;;;;;4.83;2.00;;;;;;;8.20;94.94;100411.88;6046507;28;20041;-68
2022/11/24 09:23:35;;;;;;;10.13;3.38;;;;;;;8.31;94.39;100398.56;6046551;28;20285;-68
2022/11/24 09:26:32;;;;;;;13.55;3.13;;;;;;;8.52;93.52;100408.13;6046916;28;20030;-68
2022/11/24 09:29:28;;;;;;;13.35;2.78;;;;;;;8.71;92.41;100410.75;6046238;28;20037;-67
2022/11/24 09:32:23;;;;;;;11.37;2.60;;;;;;;8.68;91.21;100390.72;6036901;28;20069;-68
2022/11/24 09:35:18;;;;;;;10.13;2.40;;;;;;;8.38;91.74;100397.00;6046695;28;20503;-68
2022/11/24 09:38:14;;;;;;;11.07;2.33;;;;;;;8.49;92.73;100405.75;6045180;28;20026;-68
2022/11/24 09:41:21;;;;;;;8.90;2.30;;;;;;;8.63;92.56;100410.63;6045402;28;20053;-68
2022/11/24 09:44:30;;;;;;;5.60;1.92;;;;;;;8.65;91.84;100419.22;6045157;28;20117;-68
2022/11/24 09:47:44;;;;;;;8.75;2.67;;;;;;;8.80;91.19;100412.53;6043130;28;20045;-68
2022/11/24 09:50:48;;;;;;;7.82;1.83;;;;;;;8.86;91.26;100404.03;6045411;28;20443;-68
2022/11/24 09:54:12;;;;;;;13.00;2.20;;;;;;;9.06;89.75;100421.53;6043363;28;20470;-68
2022/11/24 09:57:10;;;;;;;13.15;2.20;;;;;;;9.23;89.79;100419.94;6056547;28;20030;-68
2022/11/24 10:00:11;;;;;;;4.22;1.50;;;;;;;9.37;88.51;100420.31;6036739;28;20042;-69
2022/11/24 10:03:14;;;;;;;10.85;1.98;;;;;;;9.62;86.76;100404.72;6042699;28;20061;-68
2022/11/24 10:06:26;;;;;;;8.45;2.00;;;;;;;9.88;86.13;100424.22;6045662;28;20041;-69
2022/11/24 10:09:27;;;;;;;13.02;3.65;;;;;;;10.12;85.53;100417.41;6045302;28;20091;-69
2022/11/24 10:13:03;;;;;;;9.73;1.23;;;;;;;10.04;84.47;100425.25;6045426;28;20060;-68
2022/11/24 10:16:03;;;;;;;12.68;3.47;;;;;;;9.50;85.20;100436.69;5989479;28;20514;-68
2022/11/24 10:19:20;;;;;;;7.60;1.77;;;;;;;9.21;87.47;100419.25;5968018;28;20479;-68
2022/11/24 10:22:32;;;;;;;11.35;2.53;;;;;;;9.31;87.45;100434.13;6038415;28;20038;-69
2022/11/24 10:25:53;;;;;;;8.40;2.08;;;;;;;9.59;87.03;100433.16;6044273;28;20826;-68
2022/11/24 10:28:55;;;;;;;7.13;1.33;;;;;;;9.57;86.27;100421.03;6045579;28;20030;-68
2022/11/24 10:31:54;;;;;;;10.98;2.10;;;;;;;9.64;86.37;100432.72;6037038;28;20069;-68
2022/11/24 10:34:50;;;;;;;7.25;1.58;;;;;;;9.67;86.17;100423.66;6045518;28;20041;-68
2022/11/24 10:38:05;;;;;;;4.72;1.63;;;;;;;9.63;85.73;100424.91;6043654;28;20037;-69
2022/11/24 10:41:04;;;;;;;6.90;1.77;;;;;;;9.71;86.39;100438.25;6042930;28;20421;-69
2022/11/24 10:43:59;;;;;;;9.77;2.08;;;;;;;9.51;87.59;100440.97;6043957;28;20388;-69
2022/11/24 10:46:55;;;;;;;15.03;2.20;;;;;;;9.26;87.99;100444.31;6045018;28;20172;-68
2022/11/24 10:50:01;;;;;;;5.57;1.65;;;;;;;9.20;88.72;100439.59;6044812;28;20672;-68
2022/11/24 10:53:19;;;;;;;9.52;1.60;;;;;;;9.28;89.08;100437.06;6044185;28;20384;-69
2022/11/24 10:56:14;;;;;;;5.78;1.63;;;;;;;9.30;89.42;100432.44;6046061;28;20037;-69
2022/11/24 10:59:38;;;;;;;7.30;1.57;;;;;;;9.88;88.84;100440.13;6044648;28;20018;-69
2022/11/24 11:02:36;;;;;;;6.32;1.40;;;;;;;10.23;87.19;100434.06;6045540;28;21048;-68
2022/11/24 11:05:31;;;;;;;9.40;2.03;;;;;;;10.31;84.80;100429.66;6046762;28;20033;-68
2022/11/24 11:08:33;;;;;;;6.53;2.03;;;;;;;10.24;84.48;100431.28;6044952;28;20033;-68
2022/11/24 11:11:28;;;;;;;10.35;2.75;;;;;;;9.88;85.59;100432.16;6044890;28;20041;-68
2022/11/24 11:14:32;;;;;;;8.88;1.83;;;;;;;9.83;86.24;100439.72;6041236;28;20081;-68
2022/11/24 11:17:34;;;;;;;8.60;2.28;;;;;;;9.87;86.97;100441.09;6044612;28;20467;-69
2022/11/24 11:20:32;;;;;;;6.68;1.83;;;;;;;9.97;86.80;100444.53;6044511;28;20492;-69
2022/11/24 11:23:30;;;;;;;7.05;2.30;;;;;;;9.88;86.35;100448.91;6043693;28;20033;-69
2022/11/24 11:26:30;;;;;;;8.80;2.00;;;;;;;10.00;86.04;100452.19;6045610;28;20041;-67
2022/11/24 11:29:27;;;;;;;7.47;1.73;;;;;;;9.76;86.04;100452.72;6044841;28;20042;-68
2022/11/24 11:32:25;;;;;;;4.93;1.75;;;;;;;9.63;86.68;100451.38;6046618;28;20034;-68
2022/11/24 11:35:22;;;;;;;6.25;1.60;;;;;;;9.52;87.18;100450.59;6048906;28;20462;-68
2022/11/24 11:38:17;;;;;;;8.82;2.08;;;;;;;9.52;87.68;100461.19;6045991;28;20120;-68
2022/11/24 11:41:29;;;;;;;8.32;2.25;;;;;;;9.45;88.26;100468.06;6047047;28;20025;-68
2022/11/24 11:44:35;;;;;;;12.95;2.40;;;;;;;9.41;88.45;100464.03;6049537;28;20378;-68
2022/11/24 11:47:55;;;;;;;11.88;2.10;;;;;;;9.43;88.63;100470.00;6046609;28;20042;-68
2022/11/24 11:50:54;;;;;;;5.72;2.95;;;;;;;9.42;88.27;100463.06;6045267;28;20042;-68
2022/11/24 11:54:29;;;;;;;9.85;1.73;;;;;;;9.50;88.28;100464.97;6047538;28;20096;-69
2022/11/24 11:57:37;;;;;;;6.20;1.95;;;;;;;9.73;88.19;100482.13;6049081;28;20025;-69
2022/11/24 12:00:34;;;;;;;;;;;;;;;9.75;86.99;100482.00;6048389;28;20033;-69
2022/11/24 12:03:57;;;;;;;9.00;1.88;;;;;;;9.76;87.23;100484.50;6046676;28;20328;-69
2022/11/24 12:07:11;;;;;;;10.60;1.98;;;;;;;9.86;86.41;100479.16;6049053;28;20042;-69
2022/11/24 12:10:09;;;;;;;7.03;2.30;;;;;;;9.86;86.26;100490.59;6044861;28;20080;-69
2022/11/24 12:13:17;;;;;;;9.43;2.58;;;;;;;9.97;86.56;100486.91;6047357;28;20616;-69
2022/11/24 12:16:23;;;;;;;14.48;2.30;;;;;;;9.87;85.73;100486.09;6044471;28;20414;-69
2022/11/24 12:19:21;;;;;;;10.65;1.73;;;;;;;9.87;86.16;100480.81;6041864;28;20040;-68
2022/11/24 12:22:35;;;;;;;7.93;2.00;;;;;;;9.77;86.13;100485.31;6047951;28;20137;-69
2022/11/24 12:26:08;;;;;;;11.80;1.92;;;;;;;9.84;86.63;100489.03;6048531;28;20045;-69
2022/11/24 12:29:41;;;;;;;6.78;1.50;;;;;;;9.93;85.66;100485.53;6044188;28;20041;-69
2022/11/24 12:32:54;;;;;;;;;;;;;;;9.91;84.74;100482.19;6047592;28;20460;-68
2022/11/24 12:36:28;;;;;;;11.63;2.20;;;;;;;9.89;84.44;100500.88;6047403;28;19917;-69
2022/11/24 12:39:43;;;;;;;6.40;1.60;;;;;;;9.95;84.39;100488.84;6045098;28;20042;-69
2022/11/24 12:42:52;;;;;;;10.82;1.67;;;;;;;9.88;84.63;100493.94;6042771;28;20042;-69
2022/11/24 12:46:07;;;;;;;8.32;2.00;;;;;;;10.02;84.65;100505.84;6036212;28;20493;-69
2022/11/24 12:49:28;;;;;;;14.90;2.03;;;;;;;9.94;83.06;100490.69;6047675;28;20477;-69
2022/11/24 12:52:33;;;;;;;8.90;2.17;;;;;;;9.94;83.64;100497.81;6045361;28;20026;-70
2022/11/24 12:55:31;;;;;;;8.57;2.30;;;;;;;10.02;82.96;100511.97;6046574;28;20165;-68
2022/11/24 12:58:41;;;;;;;5.57;1.67;;;;;;;10.01;83.09;100517.41;6046013;28;20112;-68
2022/11/24 13:02:04;;;;;;;9.90;2.17;;;;;;;9.92;84.00;100515.66;6034022;28;20125;-67
2022/11/24 13:04:59;;;;;;;10.15;3.00;;;;;;;9.94;84.00;100505.75;6042163;28;20105;-68
2022/11/24 13:08:02;;;;;;;7.17;2.50;;;;;;;9.96;83.64;100514.38;6047448;28;20033;-68
2022/11/24 13:11:19;;;;;;;11.10;2.42;;;;;;;10.12;83.34;100533.09;6046630;28;20100;-68
2022/11/24 13:14:22;;;;;;;7.20;2.15;;;;;;;9.97;82.49;100518.69;6044788;28;20038;-67
2022/11/24 13:17:29;;;;;;;8.30;2.03;;;;;;;10.05;82.96;100532.03;6044522;28;20538;-68
2022/11/24 13:20:30;;;;;;;8.68;2.38;;;;;;;9.91;82.42;100524.56;6045520;28;20117;-68
2022/11/24 13:23:25;;;;;;;12.40;2.15;;;;;;;9.87;83.25;100525.84;6045068;28;20044;-68
2022/11/24 13:26:29;;;;;;;5.90;2.15;;;;;;;9.89;83.49;100531.84;6045205;28;20393;-68
2022/11/24 13:29:35;;;;;;;7.47;1.55;;;;;;;9.89;83.06;100548.53;6035829;28;20641;-67
2022/11/24 13:32:30;;;;;;;5.07;1.83;;;;;;;9.82;83.51;100546.63;6039063;28;20057;-67
2022/11/24 13:35:25;;;;;;;7.03;2.30;;;;;;;9.77;83.47;100544.44;6048182;28;20038;-67
2022/11/24 13:38:43;;;;;;;4.10;1.80;;;;;;;9.75;84.06;100549.03;6046867;28;20038;-68
2022/11/24 13:41:41;;;;;;;6.47;1.90;;;;;;;9.80;84.22;100553.88;6038970;28;20033;-68
2022/11/24 13:45:04;;;;;;;6.38;1.90;;;;;;;9.78;84.54;100561.16;6046385;28;20041;-67
2022/11/24 13:47:59;;;;;;;8.98;2.20;;;;;;;9.75;84.69;100556.97;6037266;28;20052;-68
2022/11/24 13:50:57;;;;;;;10.23;2.17;;;;;;;9.72;84.98;100567.03;6044170;28;20034;-68
2022/11/24 13:53:53;;;;;;;11.73;2.40;;;;;;;9.57;84.68;100556.88;6046031;28;20041;-67
2022/11/24 13:56:49;;;;;;;7.57;2.25;;;;;;;9.55;85.34;100572.09;6046318;28;20049;-67